Onde está Monte do Zé Cadete en Portugal?

Monte do Zé Cadete está situado na região Santarem em Portugal!

Buscar o nome de uma cidade:

Montes Maroera, Montongmaur, Monte Utara, Montlouis-sur-Loire, Mont d'Hubert

Aqui você vai encontrar a localização de Monte do Zé Cadete em um mapa.
Para ver como ele atualmente parece, abaixo estão algumas fotos da região, com webcams online.
Você também pode encontrar a distância para as principais cidades da região e de cidades do resto do Portugal.

Todos os lugares do mundo chamado .

new

Onde está Monte do Zé Cadete no mapa?


Webcams perto Monte do Zé Cadete

Benavente > North-East: AIrport, METAR: BENAV 180005Z 36004KT 17/14 Q1015.


Benavente > North-East: AIrport, METAR: BENAV 180005Z 36004KT 17/14 Q1015 - Dia
Actual
Benavente > North-East: AIrport, METAR: BENAV 180005Z 36004KT 17/14 Q1015 - Actual

Vasco Carão > South: Garrocheira, Benavente - Airport.


Vasco Carão > South: Garrocheira, Benavente - Airport - Dia
Actual
Vasco Carão > South: Garrocheira, Benavente - Airport - Actual

Lisbon > South: Rua Vasco da Gama.


Lisbon > South: Rua Vasco da Gama - Dia
Actual
Lisbon > South: Rua Vasco da Gama - Actual

Webcams provided by webcams.travel

Distâncias

Onde está Monte do Zé Cadete em relação a outros lugares?

Top 10 cidades em Santarem e distância de Monte do Zé Cadete.

Cidade#Populaçãokmmilhas
Santarém1293854528
Entroncamento2198877647
Tomar3191689056
Torres Novas4145267446
Samora Correia514154117
Abrantes6136468754
Ourém7127299056
Rio Maior8120645635
Fátima9117988754
Almeirim10115564327

Top 10 cidades em Portugal e distância de Monte do Zé Cadete.

Cidade # Populaçãokmmilhas
Lisbon15177983220
Porto2249630257160
Amadora31788563924
Braga4121393303188
Setúbal51171093522
Coimbra610658015496
Queluz71033984025
Funchal8980411004624
Vila Nova de Gaia970810254158
Loures10662303119